Terminal Aerodrome Forecast
Issued by NWS Charleston, SC

Home | Current Version | Previous Version | Text Only | Print | Product List | Glossary On
Versions: 1 2 3 4 5 6 7 8 9 10 11 12 13 14 15 16 17 18 19 20 21 22 23 24 25 26 27 28 29
000
FTUS42 KCHS 050152 AAA
TAFCHS
TAF AMD
KCHS 050152Z 0502/0524 21012G18KT P6SM SCT050 BKN250
     FM050400 21009KT P6SM FEW015 SCT050 WS015/23035KT
     FM050900 22007KT 5SM BR SCT003 OVC007 WS015/24040KT
     FM051500 23015G23KT P6SM SCT035 BKN070=

USA.gov is the U.S. government's official web portal to all federal, state and local government web resources and services.